Time;durP1;ratioP1;P1;durP2;ratioP2;P2;SDS_P1;SDS_P2;PMS_P1;PMS_P2;Temp;Humidity;BMP_temperature;BMP_pressure;BME280_temperature;BME280_humidity;BME280_pressure;Samples;Min_cycle;Max_cycle;Signal;HPM_P1;HPM_P2
2022/07/26 00:00:34;;;;;;;9.45;3.08;;;;;;;;;;10451377;28;20021;-52
2022/07/26 00:05:36;;;;;;;5.72;3.08;;;;;;;;;;10447382;28;20041;-54
2022/07/26 00:10:47;;;;;;;7.13;3.20;;;;;;;;;;10438167;28;20159;-53
2022/07/26 00:15:49;;;;;;;8.45;3.28;;;;;;;;;;10446556;28;20509;-53
2022/07/26 00:20:50;;;;;;;6.68;3.08;;;;;;;;;;10443823;28;20064;-53
2022/07/26 00:25:50;;;;;;;4.78;2.63;;;;;;;;;;10450433;28;20546;-52
2022/07/26 00:30:51;;;;;;;7.75;3.00;;;;;;;;;;10450921;28;20021;-53
2022/07/26 00:35:51;;;;;;;3.05;2.33;;;;;;;;;;10447139;28;20025;-52
2022/07/26 00:40:52;;;;;;;4.97;3.08;;;;;;;;;;10444653;28;20025;-53
2022/07/26 00:45:52;;;;;;;11.43;3.10;;;;;;;;;;10450329;28;20165;-50
2022/07/26 00:50:54;;;;;;;10.90;2.83;;;;;;;;;;10447861;28;20032;-52
2022/07/26 00:55:54;;;;;;;4.35;2.60;;;;;;;;;;10442923;28;20116;-51
2022/07/26 01:00:55;;;;;;;6.22;2.65;;;;;;;;;;10437741;28;20175;-53
2022/07/26 01:05:56;;;;;;;12.88;2.70;;;;;;;;;;10445535;28;20067;-50
2022/07/26 01:10:57;;;;;;;3.65;2.47;;;;;;;;;;10445919;28;20033;-52
2022/07/26 01:15:57;;;;;;;11.65;2.65;;;;;;;;;;10448768;28;20023;-50
2022/07/26 01:21:02;;;;;;;11.82;2.92;;;;;;;;;;10441247;28;20028;-56
2022/07/26 01:26:04;;;;;;;6.75;2.40;;;;;;;;;;10424263;28;20237;-50
2022/07/26 01:31:06;;;;;;;6.28;2.38;;;;;;;;;;10427484;28;20029;-49
2022/07/26 01:36:08;;;;;;;8.50;2.85;;;;;;;;;;10435380;28;20047;-50
2022/07/26 01:41:09;;;;;;;5.07;2.60;;;;;;;;;;10439181;28;20032;-53
2022/07/26 01:46:09;;;;;;;5.40;2.83;;;;;;;;;;10444160;28;20025;-51
2022/07/26 01:51:10;;;;;;;4.50;2.30;;;;;;;;;;10445940;28;20629;-51
2022/07/26 01:56:12;;;;;;;4.40;2.38;;;;;;;;;;10442994;28;20035;-49
2022/07/26 02:01:13;;;;;;;4.00;2.63;;;;;;;;;;10447942;28;20059;-53
2022/07/26 02:06:13;;;;;;;5.50;2.60;;;;;;;;;;10448442;28;20028;-54
2022/07/26 02:11:14;;;;;;;4.95;2.78;;;;;;;;;;10448143;28;20013;-53
2022/07/26 02:16:14;;;;;;;2.83;2.13;;;;;;;;;;10447282;28;20028;-52
2022/07/26 02:21:15;;;;;;;3.70;2.30;;;;;;;;;;10447903;28;20033;-54
2022/07/26 02:26:15;;;;;;;5.40;2.08;;;;;;;;;;10444214;28;20049;-53
2022/07/26 02:31:16;;;;;;;3.58;2.15;;;;;;;;;;10440431;28;20372;-51
2022/07/26 02:36:17;;;;;;;4.57;2.30;;;;;;;;;;10436241;28;20029;-57
2022/07/26 02:41:17;;;;;;;6.97;2.38;;;;;;;;;;10445318;28;20074;-55
2022/07/26 02:46:18;;;;;;;5.38;2.08;;;;;;;;;;10442796;28;20453;-56
2022/07/26 02:51:18;;;;;;;3.80;2.15;;;;;;;;;;10450265;28;20545;-52
2022/07/26 02:56:20;;;;;;;3.03;2.28;;;;;;;;;;10444757;28;20480;-56
2022/07/26 03:01:20;;;;;;;2.50;2.00;;;;;;;;;;10452894;28;20036;-54
2022/07/26 03:06:21;;;;;;;3.65;2.30;;;;;;;;;;10453453;28;20040;-51
2022/07/26 03:11:22;;;;;;;6.68;2.33;;;;;;;;;;10453057;28;20021;-52
2022/07/26 03:16:23;;;;;;;4.68;2.00;;;;;;;;;;10453862;28;20109;-53
2022/07/26 03:21:23;;;;;;;2.40;2.20;;;;;;;;;;10451985;28;20356;-55
2022/07/26 03:26:24;;;;;;;2.80;1.90;;;;;;;;;;10453420;28;20136;-54
2022/07/26 03:31:24;;;;;;;2.33;2.00;;;;;;;;;;10453277;28;20025;-57
2022/07/26 03:36:25;;;;;;;4.25;1.92;;;;;;;;;;10451619;28;20025;-51
2022/07/26 03:41:26;;;;;;;3.13;2.00;;;;;;;;;;10452309;28;20099;-51
2022/07/26 03:46:27;;;;;;;5.38;2.30;;;;;;;;;;10440944;28;20025;-52
2022/07/26 03:51:27;;;;;;;3.25;2.15;;;;;;;;;;10452539;28;20116;-51
2022/07/26 03:56:30;;;;;;;4.47;2.13;;;;;;;;;;10451949;28;20477;-53
2022/07/26 04:01:33;;;;;;;2.42;2.08;;;;;;;;;;10451307;28;20021;-52
2022/07/26 04:06:35;;;;;;;6.32;2.33;;;;;;;;;;10428914;28;20029;-54
2022/07/26 04:11:35;;;;;;;6.75;2.00;;;;;;;;;;10436771;28;20052;-54
2022/07/26 04:16:36;;;;;;;3.08;1.90;;;;;;;;;;10446515;28;20068;-52
2022/07/26 04:21:37;;;;;;;3.08;2.13;;;;;;;;;;10449136;28;20039;-52
2022/07/26 04:26:37;;;;;;;3.40;1.77;;;;;;;;;;10450454;28;20142;-50
2022/07/26 04:31:38;;;;;;;2.10;1.65;;;;;;;;;;10450362;28;20020;-54
2022/07/26 04:36:39;;;;;;;2.90;1.75;;;;;;;;;;10444899;28;20025;-54
2022/07/26 04:41:39;;;;;;;2.85;2.03;;;;;;;;;;10450849;28;20032;-52
2022/07/26 04:46:40;;;;;;;4.20;2.00;;;;;;;;;;10448587;28;20036;-54
2022/07/26 04:51:40;;;;;;;3.45;2.30;;;;;;;;;;10449763;28;20448;-53
2022/07/26 04:56:41;;;;;;;2.83;1.75;;;;;;;;;;10448226;28;20043;-51
2022/07/26 05:01:42;;;;;;;2.35;2.08;;;;;;;;;;10448061;28;20025;-58
2022/07/26 05:06:42;;;;;;;9.32;1.90;;;;;;;;;;10449771;28;20028;-58
2022/07/26 05:11:43;;;;;;;2.53;1.77;;;;;;;;;;10447237;28;20040;-58
2022/07/26 05:16:43;;;;;;;7.97;2.15;;;;;;;;;;10440787;28;20480;-57
2022/07/26 05:21:44;;;;;;;6.07;1.92;;;;;;;;;;10448468;28;20024;-56
2022/07/26 05:26:45;;;;;;;3.38;2.03;;;;;;;;;;10447125;28;20076;-60
2022/07/26 05:31:45;;;;;;;2.65;1.70;;;;;;;;;;10448052;28;20036;-60
2022/07/26 05:36:46;;;;;;;7.78;2.03;;;;;;;;;;10447094;28;20479;-52
2022/07/26 05:41:46;;;;;;;4.18;2.20;;;;;;;;;;10448238;28;20029;-57
2022/07/26 05:46:47;;;;;;;4.78;2.38;;;;;;;;;;10442153;28;20025;-53
2022/07/26 05:51:47;;;;;;;4.38;2.65;;;;;;;;;;10447848;28;20407;-56
2022/07/26 05:56:48;;;;;;;6.63;2.42;;;;;;;;;;10442584;28;20113;-57
2022/07/26 06:01:49;;;;;;;3.80;2.50;;;;;;;;;;10437187;28;20036;-56
2022/07/26 06:06:50;;;;;;;7.28;2.60;;;;;;;;;;10436451;28;20078;-54
2022/07/26 06:11:50;;;;;;;20.02;2.72;;;;;;;;;;10445356;28;20033;-56
2022/07/26 06:16:51;;;;;;;26.10;3.13;;;;;;;;;;10437650;28;20029;-54
2022/07/26 06:21:52;;;;;;;7.43;3.35;;;;;;;;;;10430747;28;20396;-52
2022/07/26 06:26:54;;;;;;;5.88;2.40;;;;;;;;;;10452458;28;20057;-54
2022/07/26 06:31:54;;;;;;;3.78;2.13;;;;;;;;;;10455554;28;20025;-54
2022/07/26 06:36:55;;;;;;;5.72;2.50;;;;;;;;;;10451924;28;20036;-52
2022/07/26 06:41:55;;;;;;;4.22;2.22;;;;;;;;;;10453907;28;20029;-52
2022/07/26 06:46:56;;;;;;;6.65;2.50;;;;;;;;;;10452690;28;20040;-51
2022/07/26 06:51:57;;;;;;;3.63;2.22;;;;;;;;;;10451363;28;20036;-51
2022/07/26 06:56:57;;;;;;;5.15;2.15;;;;;;;;;;10452076;28;20032;-50
2022/07/26 07:01:58;;;;;;;4.35;2.38;;;;;;;;;;10454254;28;20029;-50
2022/07/26 07:07:04;;;;;;;3.00;2.40;;;;;;;;;;10453593;28;20032;-52
2022/07/26 07:12:06;;;;;;;3.35;2.35;;;;;;;;;;10453281;28;20025;-56
2022/07/26 07:17:08;;;;;;;4.68;2.15;;;;;;;;;;10453664;28;20029;-57
2022/07/26 07:22:10;;;;;;;6.57;2.38;;;;;;;;;;10453004;28;20021;-55
2022/07/26 07:27:11;;;;;;;4.07;2.20;;;;;;;;;;10452433;28;20049;-54
2022/07/26 07:32:11;;;;;;;6.22;2.40;;;;;;;;;;10453326;28;20392;-52
2022/07/26 07:37:12;;;;;;;4.40;2.00;;;;;;;;;;10450539;28;20451;-53
2022/07/26 07:42:13;;;;;;;5.93;2.20;;;;;;;;;;10439802;28;20496;-55
2022/07/26 07:47:13;;;;;;;6.47;2.40;;;;;;;;;;10452522;28;20134;-52
2022/07/26 07:52:14;;;;;;;3.70;2.33;;;;;;;;;;10452252;28;20048;-53
2022/07/26 07:57:15;;;;;;;3.55;2.42;;;;;;;;;;10451257;28;20025;-55
2022/07/26 08:02:15;;;;;;;3.53;2.33;;;;;;;;;;10452019;28;20446;-55
2022/07/26 08:07:16;;;;;;;2.33;2.13;;;;;;;;;;10448014;28;20029;-56
2022/07/26 08:12:16;;;;;;;5.60;2.30;;;;;;;;;;10452473;28;20064;-57
2022/07/26 08:17:17;;;;;;;3.17;2.25;;;;;;;;;;10447884;28;20021;-54
2022/07/26 08:22:17;;;;;;;4.00;2.45;;;;;;;;;;10450567;28;20028;-55
2022/07/26 08:27:18;;;;;;;7.07;2.55;;;;;;;;;;10450261;28;20064;-53
2022/07/26 08:32:19;;;;;;;4.82;2.42;;;;;;;;;;10451475;28;20025;-53
2022/07/26 08:37:19;;;;;;;6.15;2.47;;;;;;;;;;10447325;28;20021;-52
2022/07/26 08:42:21;;;;;;;6.38;2.50;;;;;;;;;;10449128;28;20079;-50
2022/07/26 08:47:22;;;;;;;4.63;2.85;;;;;;;;;;10450092;28;20024;-51
2022/07/26 08:52:23;;;;;;;4.82;2.90;;;;;;;;;;10449748;28;20052;-57
2022/07/26 08:57:23;;;;;;;3.40;2.65;;;;;;;;;;10448572;28;20048;-56
2022/07/26 09:02:39;;;;;;;4.30;2.90;;;;;;;;;;10449352;28;20433;-57
2022/07/26 09:07:40;;;;;;;5.10;2.67;;;;;;;;;;10446398;28;20443;-59
2022/07/26 09:12:41;;;;;;;3.03;2.50;;;;;;;;;;10446526;28;20120;-52
2022/07/26 09:17:45;;;;;;;5.15;2.70;;;;;;;;;;10446652;28;20064;-51
2022/07/26 09:23:06;;;;;;;5.70;3.10;;;;;;;;;;10429990;28;20063;-58
2022/07/26 09:28:28;;;;;;;6.10;3.10;;;;;;;;;;10445568;28;20067;-57
2022/07/26 09:33:50;;;;;;;6.10;3.55;;;;;;;;;;10439831;28;20021;-49
2022/07/26 09:39:03;;;;;;;5.93;3.03;;;;;;;;;;10437258;28;20043;-59
2022/07/26 09:44:18;;;;;;;6.18;2.97;;;;;;;;;;10443790;28;20035;-54
2022/07/26 09:49:20;;;;;;;5.82;3.60;;;;;;;;;;10447747;28;20037;-57
2022/07/26 09:54:34;;;;;;;11.60;3.53;;;;;;;;;;10446067;28;20021;-57
2022/07/26 09:59:34;;;;;;;9.10;3.30;;;;;;;;;;10444926;28;20487;-55
2022/07/26 10:04:35;;;;;;;8.13;2.88;;;;;;;;;;10455547;28;20033;-56
2022/07/26 10:09:53;;;;;;;9.73;3.33;;;;;;;;;;10432285;28;20025;-57
2022/07/26 10:14:54;;;;;;;8.93;3.10;;;;;;;;;;10411738;28;20033;-51
2022/07/26 10:19:55;;;;;;;10.25;2.80;;;;;;;;;;10449028;28;20032;-54
2022/07/26 10:25:18;;;;;;;8.07;3.25;;;;;;;;;;10435826;28;20044;-54
2022/07/26 10:30:18;;;;;;;7.88;3.28;;;;;;;;;;10418475;28;20025;-54
2022/07/26 10:35:41;;;;;;;5.57;2.95;;;;;;;;;;10421988;28;20029;-56
2022/07/26 10:41:07;;;;;;;5.75;2.70;;;;;;;;;;10421073;28;20040;-54
2022/07/26 10:46:17;;;;;;;8.43;3.42;;;;;;;;;;10423469;28;20025;-54
2022/07/26 10:51:28;;;;;;;5.97;3.03;;;;;;;;;;10432087;28;20075;-56
2022/07/26 10:56:29;;;;;;;9.82;3.40;;;;;;;;;;10445714;28;20036;-57
2022/07/26 11:01:39;;;;;;;4.82;3.20;;;;;;;;;;10443004;28;20392;-55
2022/07/26 11:06:40;;;;;;;9.68;3.20;;;;;;;;;;10448783;28;20041;-56
2022/07/26 11:11:40;;;;;;;13.65;4.15;;;;;;;;;;10443358;28;20159;-54
2022/07/26 11:16:47;;;;;;;17.33;4.38;;;;;;;;;;10446858;28;20033;-52
2022/07/26 11:21:59;;;;;;;14.90;4.10;;;;;;;;;;10444774;28;20044;-57
2022/07/26 11:27:03;;;;;;;16.17;4.22;;;;;;;;;;10450755;28;20432;-56
2022/07/26 11:32:06;;;;;;;20.25;4.38;;;;;;;;;;10441066;28;20550;-54
2022/07/26 11:37:06;;;;;;;29.27;4.55;;;;;;;;;;10430866;28;20029;-54
2022/07/26 11:42:18;;;;;;;13.35;4.00;;;;;;;;;;10431040;28;20037;-49
2022/07/26 11:47:21;;;;;;;8.07;3.63;;;;;;;;;;10435632;28;20032;-54
2022/07/26 11:52:30;;;;;;;7.38;3.35;;;;;;;;;;10432005;28;20033;-52
2022/07/26 11:57:31;;;;;;;11.48;3.13;;;;;;;;;;10449159;28;20029;-56
2022/07/26 12:02:31;;;;;;;15.48;3.22;;;;;;;;;;10439468;28;20025;-54
2022/07/26 12:07:32;;;;;;;19.35;3.50;;;;;;;;;;10448207;28;20032;-55
2022/07/26 12:12:34;;;;;;;11.15;2.92;;;;;;;;;;10446320;28;20041;-50
2022/07/26 12:17:34;;;;;;;12.13;2.95;;;;;;;;;;10433519;28;20013;-57
2022/07/26 12:22:35;;;;;;;6.57;2.88;;;;;;;;;;10436795;28;20025;-51
2022/07/26 12:27:46;;;;;;;6.72;3.30;;;;;;;;;;10430465;28;20269;-51
2022/07/26 12:32:47;;;;;;;15.93;3.60;;;;;;;;;;10423878;28;20403;-56
2022/07/26 12:37:50;;;;;;;5.60;3.17;;;;;;;;;;10417304;28;20724;-56
2022/07/26 12:42:50;;;;;;;3.80;2.92;;;;;;;;;;10427203;28;20491;-58
2022/07/26 12:47:53;;;;;;;11.97;4.30;;;;;;;;;;10436822;28;20048;-57
2022/07/26 12:53:07;;;;;;;10.23;3.38;;;;;;;;;;10422168;28;20471;-52
2022/07/26 12:58:08;;;;;;;8.68;3.72;;;;;;;;;;10416800;28;20276;-53
2022/07/26 13:03:09;;;;;;;13.57;4.03;;;;;;;;;;10413042;28;20585;-53
2022/07/26 13:08:09;;;;;;;11.70;3.88;;;;;;;;;;10415914;28;20079;-52
2022/07/26 13:13:10;;;;;;;11.48;4.75;;;;;;;;;;10412052;28;20032;-52
2022/07/26 13:18:11;;;;;;;29.45;5.28;;;;;;;;;;10410809;28;20037;-53
2022/07/26 13:23:11;;;;;;;14.82;4.70;;;;;;;;;;10439114;28;20384;-51
2022/07/26 13:28:12;;;;;;;9.48;4.82;;;;;;;;;;10448300;28;20045;-53
2022/07/26 13:33:12;;;;;;;9.73;4.30;;;;;;;;;;10448270;28;20021;-54
2022/07/26 13:38:13;;;;;;;12.90;3.88;;;;;;;;;;10445302;28;20036;-52
2022/07/26 13:43:14;;;;;;;8.70;4.30;;;;;;;;;;10437275;28;20025;-53
2022/07/26 13:48:14;;;;;;;10.98;3.80;;;;;;;;;;10443747;28;20514;-52
2022/07/26 13:53:15;;;;;;;10.50;3.88;;;;;;;;;;10436386;28;20107;-51
2022/07/26 13:58:20;;;;;;;5.53;3.50;;;;;;;;;;10444836;28;20021;-52
2022/07/26 14:03:20;;;;;;;5.57;3.88;;;;;;;;;;10441690;28;20086;-51
2022/07/26 14:08:21;;;;;;;6.38;3.30;;;;;;;;;;10434040;28;20537;-54
2022/07/26 14:13:22;;;;;;;8.23;3.22;;;;;;;;;;10412954;28;20091;-49
2022/07/26 14:18:22;;;;;;;5.80;3.08;;;;;;;;;;10440919;28;20052;-50
2022/07/26 14:23:23;;;;;;;9.45;3.00;;;;;;;;;;10446366;28;20029;-48
2022/07/26 14:28:23;;;;;;;7.97;2.90;;;;;;;;;;10438305;28;20028;-54
2022/07/26 14:33:24;;;;;;;4.07;2.70;;;;;;;;;;10432058;28;20029;-54
2022/07/26 14:38:27;;;;;;;6.47;2.72;;;;;;;;;;10428895;28;20491;-53
2022/07/26 14:43:28;;;;;;;8.05;2.45;;;;;;;;;;10440892;28;20021;-50
2022/07/26 14:48:29;;;;;;;6.38;2.53;;;;;;;;;;10436468;28;20052;-52
2022/07/26 14:53:30;;;;;;;7.03;2.30;;;;;;;;;;10446394;28;20079;-51
2022/07/26 14:58:30;;;;;;;13.63;2.72;;;;;;;;;;10444404;28;20044;-52
2022/07/26 15:03:32;;;;;;;5.60;2.70;;;;;;;;;;10435681;28;20427;-56
2022/07/26 15:08:33;;;;;;;4.97;2.58;;;;;;;;;;10440697;28;20484;-55
2022/07/26 15:13:34;;;;;;;7.32;2.50;;;;;;;;;;10441446;28;20036;-57
2022/07/26 15:18:35;;;;;;;8.38;2.53;;;;;;;;;;10435008;28;20029;-51
2022/07/26 15:23:35;;;;;;;6.80;2.45;;;;;;;;;;10419304;28;20041;-56
2022/07/26 15:28:36;;;;;;;5.43;2.30;;;;;;;;;;10414888;28;20057;-53
2022/07/26 15:33:37;;;;;;;6.10;2.03;;;;;;;;;;10411433;28;20026;-57
2022/07/26 15:38:43;;;;;;;4.80;2.28;;;;;;;;;;10415557;28;20045;-56
2022/07/26 15:43:47;;;;;;;9.50;2.55;;;;;;;;;;10420453;28;20116;-54
2022/07/26 15:48:47;;;;;;;5.25;2.10;;;;;;;;;;10420529;28;20310;-57
2022/07/26 15:53:48;;;;;;;3.70;2.05;;;;;;;;;;10426467;28;20212;-56
2022/07/26 15:58:48;;;;;;;3.53;1.95;;;;;;;;;;10424040;28;20055;-53
2022/07/26 16:03:49;;;;;;;2.78;2.30;;;;;;;;;;10438757;28;20032;-57
2022/07/26 16:08:50;;;;;;;3.03;2.00;;;;;;;;;;10433504;28;20036;-57
2022/07/26 16:13:50;;;;;;;9.95;2.20;;;;;;;;;;10424871;28;20033;-58
2022/07/26 16:18:52;;;;;;;4.10;2.00;;;;;;;;;;10446626;28;20507;-56
2022/07/26 16:23:53;;;;;;;5.10;2.13;;;;;;;;;;10428837;28;20037;-53
2022/07/26 16:28:53;;;;;;;3.13;2.30;;;;;;;;;;10429389;28;20033;-54
2022/07/26 16:33:54;;;;;;;4.63;2.33;;;;;;;;;;10417908;28;20021;-53
2022/07/26 16:38:54;;;;;;;7.60;2.55;;;;;;;;;;10435051;28;20037;-54
2022/07/26 16:43:56;;;;;;;6.47;2.20;;;;;;;;;;10438474;28;20048;-53
2022/07/26 16:48:57;;;;;;;5.95;2.17;;;;;;;;;;10428834;28;20025;-59
2022/07/26 16:53:58;;;;;;;4.28;1.90;;;;;;;;;;10413367;28;20112;-59
2022/07/26 16:59:12;;;;;;;4.72;2.50;;;;;;;;;;10447326;28;20029;-55
2022/07/26 17:04:13;;;;;;;3.30;1.90;;;;;;;;;;10442081;28;20025;-55
2022/07/26 17:09:14;;;;;;;6.82;2.35;;;;;;;;;;10440720;28;20025;-58
2022/07/26 17:14:16;;;;;;;4.05;2.30;;;;;;;;;;10448200;28;20028;-55
2022/07/26 17:19:17;;;;;;;7.18;2.45;;;;;;;;;;10444769;28;20036;-57
2022/07/26 17:24:17;;;;;;;3.78;2.38;;;;;;;;;;10445939;28;20044;-58
2022/07/26 17:29:18;;;;;;;6.78;4.15;;;;;;;;;;10444405;28;20330;-58
2022/07/26 17:34:19;;;;;;;8.25;5.07;;;;;;;;;;10440696;28;20064;-58
2022/07/26 17:39:19;;;;;;;5.90;4.20;;;;;;;;;;10447096;28;20028;-57
2022/07/26 17:44:20;;;;;;;7.82;4.70;;;;;;;;;;10443119;28;20028;-56
2022/07/26 17:49:22;;;;;;;10.75;4.85;;;;;;;;;;10433671;28;20029;-54
2022/07/26 17:54:24;;;;;;;7.53;4.65;;;;;;;;;;10426326;28;20021;-55
2022/07/26 17:59:24;;;;;;;6.10;4.25;;;;;;;;;;10423131;28;20115;-58
2022/07/26 18:04:25;;;;;;;18.45;4.78;;;;;;;;;;10445658;28;20037;-59
2022/07/26 18:09:26;;;;;;;10.85;3.80;;;;;;;;;;10444309;28;20034;-60
2022/07/26 18:14:26;;;;;;;7.72;3.97;;;;;;;;;;10445214;28;20083;-56
2022/07/26 18:19:29;;;;;;;8.88;3.38;;;;;;;;;;10433489;28;20037;-55
2022/07/26 18:24:29;;;;;;;10.13;3.25;;;;;;;;;;10452696;28;20403;-59
2022/07/26 18:29:31;;;;;;;15.63;3.30;;;;;;;;;;10442726;28;20034;-57
2022/07/26 18:34:31;;;;;;;5.57;3.38;;;;;;;;;;10426711;28;20373;-59
2022/07/26 18:39:32;;;;;;;9.40;3.08;;;;;;;;;;10435938;28;20028;-53
2022/07/26 18:44:35;;;;;;;10.93;2.97;;;;;;;;;;10449324;28;20059;-60
2022/07/26 18:49:36;;;;;;;7.30;3.42;;;;;;;;;;10436496;28;20117;-59
2022/07/26 18:54:37;;;;;;;7.55;3.20;;;;;;;;;;10454163;28;20029;-60
2022/07/26 18:59:37;;;;;;;3.88;2.42;;;;;;;;;;10454705;28;20033;-59
2022/07/26 19:04:38;;;;;;;6.35;2.85;;;;;;;;;;10443640;28;20040;-60
2022/07/26 19:09:38;;;;;;;7.13;2.85;;;;;;;;;;10453691;28;20037;-60
2022/07/26 19:14:39;;;;;;;3.90;2.75;;;;;;;;;;10451563;28;20268;-61
2022/07/26 19:19:41;;;;;;;4.22;2.63;;;;;;;;;;10449892;28;20036;-60
2022/07/26 19:24:42;;;;;;;6.22;2.70;;;;;;;;;;10439715;28;20115;-59
2022/07/26 19:29:43;;;;;;;6.80;2.78;;;;;;;;;;10439298;28;20026;-60
2022/07/26 19:34:43;;;;;;;3.28;2.50;;;;;;;;;;10450544;28;20025;-60
2022/07/26 19:39:44;;;;;;;3.88;2.45;;;;;;;;;;10450841;28;20039;-59
2022/07/26 19:44:45;;;;;;;4.90;2.72;;;;;;;;;;10451264;28;20338;-60
2022/07/26 19:49:46;;;;;;;4.85;2.53;;;;;;;;;;10451591;28;20109;-60
2022/07/26 19:54:46;;;;;;;7.75;2.40;;;;;;;;;;10450026;28;20037;-60
2022/07/26 19:59:47;;;;;;;4.00;2.55;;;;;;;;;;10447990;28;20102;-58
2022/07/26 20:04:47;;;;;;;5.13;2.63;;;;;;;;;;10450803;28;21110;-58
2022/07/26 20:09:49;;;;;;;4.18;2.53;;;;;;;;;;10447497;28;20022;-58
2022/07/26 20:14:50;;;;;;;3.45;2.30;;;;;;;;;;10450395;28;20468;-60
2022/07/26 20:19:52;;;;;;;4.72;2.53;;;;;;;;;;10425443;28;20029;-59
2022/07/26 20:24:54;;;;;;;3.33;2.35;;;;;;;;;;10444366;28;20041;-60
2022/07/26 20:29:55;;;;;;;4.13;2.30;;;;;;;;;;10442135;28;20021;-59
2022/07/26 20:34:56;;;;;;;3.03;2.40;;;;;;;;;;10442472;28;20029;-59
2022/07/26 20:39:56;;;;;;;5.43;2.45;;;;;;;;;;10450804;28;20037;-59
2022/07/26 20:44:57;;;;;;;4.97;2.38;;;;;;;;;;10444953;28;20037;-59
2022/07/26 20:49:58;;;;;;;3.17;2.13;;;;;;;;;;10447429;28;20484;-57
2022/07/26 20:54:59;;;;;;;3.75;2.58;;;;;;;;;;10450459;28;20059;-60
2022/07/26 20:59:59;;;;;;;4.10;2.60;;;;;;;;;;10448828;28;20025;-59
2022/07/26 21:05:00;;;;;;;4.32;2.50;;;;;;;;;;10440814;28;20480;-61
2022/07/26 21:10:01;;;;;;;4.43;2.58;;;;;;;;;;10422251;28;20033;-59
2022/07/26 21:15:02;;;;;;;3.53;2.60;;;;;;;;;;10429387;28;20032;-60
2022/07/26 21:20:04;;;;;;;8.15;2.50;;;;;;;;;;10425516;28;20420;-58
2022/07/26 21:25:06;;;;;;;7.03;2.55;;;;;;;;;;10429186;28;20037;-59
2022/07/26 21:30:07;;;;;;;2.88;2.17;;;;;;;;;;10420010;28;20021;-60
2022/07/26 21:35:08;;;;;;;2.85;2.30;;;;;;;;;;10418031;28;20446;-55
2022/07/26 21:40:10;;;;;;;6.90;2.38;;;;;;;;;;10435539;28;20039;-51
2022/07/26 21:45:10;;;;;;;3.25;2.42;;;;;;;;;;10432501;28;20071;-52
2022/07/26 21:50:11;;;;;;;9.70;2.67;;;;;;;;;;10436565;28;20120;-56
2022/07/26 21:55:11;;;;;;;5.88;2.75;;;;;;;;;;10441579;28;20029;-54
2022/07/26 22:00:14;;;;;;;11.88;2.55;;;;;;;;;;10433071;28;20025;-56
2022/07/26 22:10:35;;;;;;;7.55;2.58;;;;;;;;;;10430590;28;20026;-58
2022/07/26 22:15:35;;;;;;;3.88;2.15;;;;;;;;;;10423932;28;20028;-56
2022/07/26 22:20:36;;;;;;;6.75;2.92;;;;;;;;;;10436619;28;20048;-57
2022/07/26 22:25:38;;;;;;;13.90;2.30;;;;;;;;;;10436729;28;20488;-57
2022/07/26 22:30:39;;;;;;;5.07;1.98;;;;;;;;;;10428904;28;20472;-55
2022/07/26 22:35:39;;;;;;;5.70;2.20;;;;;;;;;;10438489;28;20060;-56
2022/07/26 22:40:42;;;;;;;5.18;1.77;;;;;;;;;;10428675;28;20037;-58
2022/07/26 22:45:43;;;;;;;3.40;1.70;;;;;;;;;;10419639;28;20037;-60
2022/07/26 22:50:43;;;;;;;2.83;2.13;;;;;;;;;;10414709;28;20026;-58
2022/07/26 22:55:44;;;;;;;6.07;1.95;;;;;;;;;;10412003;28;20037;-57
2022/07/26 23:00:44;;;;;;;3.42;1.90;;;;;;;;;;10445530;28;20029;-57
2022/07/26 23:05:45;;;;;;;4.55;1.88;;;;;;;;;;10445390;28;20127;-54
2022/07/26 23:10:46;;;;;;;5.78;1.70;;;;;;;;;;10452044;28;20064;-54
2022/07/26 23:15:46;;;;;;;3.83;2.22;;;;;;;;;;10452924;28;20029;-52
2022/07/26 23:20:47;;;;;;;6.63;2.20;;;;;;;;;;10449675;28;20033;-51
2022/07/26 23:25:47;;;;;;;5.47;1.88;;;;;;;;;;10452613;28;20051;-53
2022/07/26 23:30:48;;;;;;;4.78;1.65;;;;;;;;;;10442444;28;20090;-54
2022/07/26 23:35:48;;;;;;;4.00;2.00;;;;;;;;;;10451787;28;20017;-54
2022/07/26 23:40:49;;;;;;;2.17;1.80;;;;;;;;;;10453205;28;20032;-54
2022/07/26 23:45:50;;;;;;;3.40;1.63;;;;;;;;;;10450189;28;20024;-55
2022/07/26 23:50:50;;;;;;;4.65;1.70;;;;;;;;;;10428868;28;20029;-55
2022/07/26 23:55:51;;;;;;;5.93;1.83;;;;;;;;;;10428915;28;20116;-55
